METAR Data
IDs: Format: Raw Decoded Include TAF

Data at: 1650 UTC 03 Dec 2021

KBKE 031602Z AUTO 00000KT 3SM BR FEW002 M04/M04 A3023 RMK AO2 T10391044
KBKE 031558Z AUTO 00000KT 1 1/4SM BR FEW002 M04/M04 A3023 RMK AO2 T10441044
KBKE 031553Z AUTO 00000KT 1/2SM FZFG VV002 M04/M04 A3023 RMK AO2 SLP271 T10441044
KBKE 031535Z AUTO 00000KT 1/4SM FZFG VV002 M06/M07 A3022 RMK AO2 T10611067
KBKE 031525Z AUTO 00000KT 3/4SM BR VV002 M07/M07 A3022 RMK AO2 T10671067
KBKE 031514Z AUTO 13003KT 1/2SM FZFG CLR M06/M07 A3022 RMK AO2 VIS 1/2V1 1/4 T10611067
KBKE 031504Z AUTO 12003KT 1 1/2SM BR CLR M06/M06 A3022 RMK AO2 T10561061
KBKE 031453Z AUTO 14004KT 7SM CLR M06/M07 A3022 RMK AO2 SLP264 I1000 I3001 T10611067 53003
KBKE 031406Z AUTO 28003KT 3SM BR SCT002 M05/M06 A3021 RMK AO2 T10501056
KBKE 031402Z AUTO 31004KT 1 1/4SM BR SCT002 M06/M06 A3022 RMK AO2 T10561061
KBKE 031353Z AUTO 31003KT 3/4SM BR VV002 M06/M06 A3021 RMK AO2 SLP261 T10561061
KBKE 031339Z AUTO 00000KT 1/4SM FZFG VV002 M06/M06 A3020 RMK AO2 T10561056
KBKE 031312Z AUTO 00000KT 1/2SM FZFG VV002 M04/M05 A3021 RMK AO2 T10441050
KBKE 031304Z AUTO 15003KT 1/4SM FZFG VV002 M05/M06 A3020 RMK AO2 T10501061
KBKE 031253Z AUTO 00000KT 1/2SM FZFG VV002 M04/M05 A3021 RMK AO2 SLP257 I1001 T10441050
KBKE 031246Z AUTO 00000KT 1/4SM FZFG VV002 M04/M06 A3021 RMK AO2 I1001 T10441056
KBKE 031153Z AUTO 00000KT 1/2SM FZFG VV002 M05/M06 A3021 RMK AO2 SLP252 I1000 I6000 T10501056 11017 21050 58002
KBKE 031142Z AUTO 00000KT 3/4SM BR VV002 M04/M05 A3022 RMK AO2 I1000 T10391050
KBKE 031135Z AUTO 00000KT 1 1/4SM BR SCT002 M04/M05 A3022 RMK AO2 VIS 1/2V4 I1000 T10441050
KBKE 031110Z AUTO 00000KT 3/4SM BR VV002 M03/M04 A3022 RMK AO2 T10331039
KBKE 031053Z AUTO 00000KT 1/2SM FZFG VV001 M03/M04 A3022 RMK AO2 SLP252 I1000 T10331039
KBKE 031042Z AUTO 00000KT 1/2SM FZFG VV001 M03/M04 A3023 RMK AO2 I1000 T10331039
KBKE 031006Z AUTO 00000KT 3/4SM BR VV002 M03/M04 A3022 RMK AO2 T10331044
KBKE 030953Z AUTO 00000KT 1SM BR VV001 M04/M05 A3022 RMK AO2 SLP252 T10441050
KBKE 030951Z AUTO 00000KT 1 1/2SM BR BKN001 M04/M06 A3022 RMK AO2
KBKE 030948Z AUTO 00000KT 2 1/2SM BR SCT001 M04/M06 A3022 RMK AO2
KBKE 030853Z AUTO 20004KT 8SM CLR M03/M03 A3021 RMK AO2 SLP247 I1000 I3000 T10281033 56007
KBKE 030832Z AUTO 00000KT 5SM BR FEW001 M03/M03 A3022 RMK AO2 T10281033
KBKE 030823Z AUTO 29004KT 4SM BR BKN001 M03/M03 A3022 RMK AO2 T10281033
KBKE 030753Z AUTO 00000KT 4SM BR SCT002 M03/M04 A3021 RMK AO2 SLP248 T10281039 401001050
KBKE 030744Z AUTO 00000KT 3SM BR SCT002 M02/M03 A3022 RMK AO2 T10221028
KBKE 030740Z AUTO 34003KT 1 1/4SM BR SCT002 M02/M03 A3022 RMK AO2 T10221033
KBKE 030726Z AUTO 02003KT 3/4SM BR VV002 M03/M04 A3022 RMK AO2 T10331039
KBKE 030720Z AUTO 02004KT 1 3/4SM BR FEW002 M03/M04 A3023 RMK AO2 T10281039
KBKE 030653Z AUTO 00000KT 9SM FEW002 M02/M03 A3022 RMK AO2 SLP254 T10171028
KBKE 030634Z AUTO 00000KT 9SM SCT002 M03/M04 A3023 RMK AO2 T10331044
KBKE 030627Z AUTO 00000KT 1 3/4SM BR FEW002 M03/M04 A3022 RMK AO2 T10281039
KBKE 030610Z AUTO 00000KT 1/2SM FZFG VV002 M03/M04 A3023 RMK AO2 T10331044
KBKE 030603Z AUTO 00000KT 1 1/4SM BR CLR M04/M05 A3023 RMK AO2 T10391050
KBKE 030553Z AUTO 36003KT 6SM BR CLR M04/M05 A3023 RMK AO2 SLP262 I1000 I6000 T10391050 10072 21050 52010
KBKE 030453Z AUTO 16004KT 8SM CLR M03/M04 A3021 RMK AO2 SLP258 T10281039
KBKE 030353Z AUTO 16004KT 10SM CLR M02/M03 A3022 RMK AO2 SLP262 T10221028
KBKE 030253Z AUTO 00000KT 9SM CLR 00/M01 A3020 RMK AO2 SLP254 T00001011 51009
KBKE 030153Z AUTO 22004KT 10SM CLR 01/M01 A3019 RMK AO2 SLP252 T00061011
KBKE 030053Z AUTO 17005KT 10SM CLR 02/00 A3018 RMK AO2 SLP248 T00170000
KBKE 022353Z AUTO 00000KT 10SM CLR 07/02 A3017 RMK AO2 SLP235 T00720022 10100 20039 55005
KBKE 022253Z AUTO 23003KT 10SM CLR 09/03 A3016 RMK AO2 SLP230 T00890028
KBKE 022153Z AUTO 20003KT 10SM CLR 09/03 A3016 RMK AO2 SLP229 T00890028
KBKE 022053Z AUTO 30003KT 10SM BKN065 09/03 A3018 RMK AO2 SLP236 T00890028 58010
KBKE 021953Z AUTO VRB03KT 10SM BKN065 08/03 A3019 RMK AO2 SLP241 T00780028
KBKE 021853Z AUTO 00000KT 10SM SCT065 06/02 A3022 RMK AO2 SLP251 T00560022
KBKE 021753Z AUTO 00000KT 10SM CLR 04/02 A3022 RMK AO2 SLP250 I6000 T00390017 10039 21044 51011
KBKE 021653Z AUTO 31005KT 10SM CLR 01/00 A3021 RMK AO2 SLP250 T00060000
KBKE 021553Z AUTO 00000KT 10SM CLR M02/M03 A3019 RMK AO2 SLP248 T10221033
KBKE 021453Z AUTO 00000KT 10SM CLR M04/M04 A3018 RMK AO2 SLP246 I1000 I3000 T10391044 55003
KBKE 021353Z AUTO 24004KT 10SM CLR M04/M04 A3017 RMK AO2 SLP241 I1000 T10391044
KBKE 021253Z AUTO 13003KT 10SM CLR M04/M04 A3018 RMK AO2 SLP240 I1000 T10391044
KBKE 021153Z AUTO 17004KT 10SM CLR M03/M04 A3019 RMK AO2 SLP240 T10331039 10017 21033 56003
KBKE 021053Z AUTO 16004KT 10SM CLR M03/M03 A3019 RMK AO2 SLP237 T10281033
KBKE 020953Z AUTO 32005KT 10SM CLR M02/M02 A3020 RMK AO2 SLP238 T10171022
KBKE 020853Z AUTO 14004KT 10SM CLR M01/M02 A3020 RMK AO2 SLP241 T10111017 58007
KBKE 020753Z AUTO 00000KT 10SM CLR M01/M02 A3022 RMK AO2 SLP248 T10111017 401221039
KBKE 020653Z AUTO 00000KT 10SM CLR M01/M02 A3022 RMK AO2 SLP253 T10111022
KBKE 020553Z AUTO 21005KT 10SM CLR 02/M01 A3023 RMK AO2 SLP255 T00171006 10094 21011 56006
KBKE 020453Z AUTO 00000KT 10SM CLR 01/M01 A3023 RMK AO2 SLP258 T00111006